Time;durP1;ratioP1;P1;durP2;ratioP2;P2;SDS_P1;SDS_P2;PMS_P1;PMS_P2;Temp;Humidity;BMP_temperature;BMP_pressure;BME280_temperature;BME280_humidity;BME280_pressure;Samples;Min_cycle;Max_cycle;Signal;HPM_P1;HPM_P2
2024/03/24 00:01:49;;;;;;;0.70;0.70;;;25.30;1.00;;;;;;2612004;39;20667;-69
2024/03/24 00:04:15;;;;;;;0.70;0.70;;;25.20;1.00;;;;;;2611419;54;20167;-69
2024/03/24 00:06:41;;;;;;;0.77;0.77;;;25.20;1.00;;;;;;2611878;47;20181;-68
2024/03/24 00:09:11;;;;;;;0.70;0.70;;;25.20;1.00;;;;;;2611782;54;20407;-68
2024/03/24 00:11:38;;;;;;;0.80;0.80;;;25.10;1.00;;;;;;2612685;39;20796;-68
2024/03/24 00:14:04;;;;;;;0.70;0.70;;;25.10;1.00;;;;;;2612231;54;20427;-67
2024/03/24 00:16:30;;;;;;;0.70;0.70;;;25.10;1.00;;;;;;2611784;54;20419;-69
2024/03/24 00:18:57;;;;;;;0.80;0.80;;;25.00;1.00;;;;;;2612578;54;20511;-69
2024/03/24 00:21:22;;;;;;;1.40;1.30;;;25.00;1.00;;;;;;2613115;47;20456;-69
2024/03/24 00:23:48;;;;;;;0.77;0.77;;;24.90;1.00;;;;;;2611150;54;20423;-68
2024/03/24 00:26:14;;;;;;;0.77;0.77;;;24.90;1.00;;;;;;2611898;54;20282;-66
2024/03/24 00:28:39;;;;;;;0.70;0.70;;;24.90;1.00;;;;;;2612211;54;20155;-66
2024/03/24 00:31:05;;;;;;;0.80;0.80;;;24.90;1.00;;;;;;2612850;54;20169;-66
2024/03/24 00:33:31;;;;;;;0.80;0.80;;;24.80;1.00;;;;;;2610506;54;20192;-66
2024/03/24 00:35:57;;;;;;;0.70;0.70;;;24.80;1.00;;;;;;2612226;54;20266;-66
2024/03/24 00:38:22;;;;;;;0.70;0.70;;;24.80;1.00;;;;;;2612926;54;20165;-66
2024/03/24 00:40:48;;;;;;;0.70;0.70;;;24.80;1.00;;;;;;2612644;54;20407;-67
2024/03/24 00:43:14;;;;;;;0.70;0.70;;;24.70;1.00;;;;;;2612519;54;20178;-66
2024/03/24 00:45:40;;;;;;;0.77;0.77;;;24.70;1.00;;;;;;2612499;54;20166;-66
2024/03/24 00:48:06;;;;;;;0.70;0.60;;;24.70;1.00;;;;;;2611347;54;20511;-66
2024/03/24 00:50:32;;;;;;;0.70;0.70;;;24.70;1.00;;;;;;2612719;54;20285;-66
2024/03/24 00:52:58;;;;;;;0.70;0.70;;;24.60;1.00;;;;;;2611108;54;20985;-66
2024/03/24 00:55:24;;;;;;;0.80;0.80;;;24.60;1.00;;;;;;2611146;47;20171;-66
2024/03/24 00:57:51;;;;;;;0.80;0.80;;;24.60;1.00;;;;;;2613685;54;20150;-65
2024/03/24 01:00:17;;;;;;;0.70;0.70;;;24.60;1.00;;;;;;2610651;54;20203;-66
2024/03/24 01:02:43;;;;;;;0.63;0.60;;;24.50;1.00;;;;;;2612253;54;20388;-65
2024/03/24 01:05:09;;;;;;;0.80;0.80;;;24.50;1.00;;;;;;2611786;54;20945;-77
2024/03/24 01:07:35;;;;;;;0.83;0.83;;;24.50;1.00;;;;;;2612665;54;20175;-77
2024/03/24 01:10:01;;;;;;;0.70;0.70;;;24.50;1.00;;;;;;2610908;39;20796;-77
2024/03/24 01:12:27;;;;;;;0.77;0.77;;;24.40;1.00;;;;;;2611881;47;20179;-77
2024/03/24 01:14:52;;;;;;;0.80;0.80;;;24.40;1.00;;;;;;2613032;47;20167;-69
2024/03/24 01:17:19;;;;;;;0.80;0.80;;;24.40;1.00;;;;;;2611652;54;20956;-69
2024/03/24 01:19:45;;;;;;;0.80;0.80;;;24.40;1.00;;;;;;2612686;39;20703;-69
2024/03/24 01:22:10;;;;;;;0.70;0.70;;;24.30;1.00;;;;;;2613143;47;20428;-69
2024/03/24 01:24:36;;;;;;;0.77;0.77;;;24.30;1.00;;;;;;2612960;54;20158;-69
2024/03/24 01:27:02;;;;;;;0.70;0.70;;;24.30;1.00;;;;;;2612571;50;20170;-69
2024/03/24 01:29:28;;;;;;;0.80;0.80;;;24.30;1.00;;;;;;2612051;39;20564;-68
2024/03/24 01:31:53;;;;;;;0.70;0.70;;;24.30;1.00;;;;;;2612782;39;20590;-69
2024/03/24 01:34:19;;;;;;;0.80;0.80;;;24.30;1.00;;;;;;2613285;54;20182;-63
2024/03/24 01:36:45;;;;;;;0.90;0.90;;;24.30;1.00;;;;;;2610834;54;20167;-63
2024/03/24 01:39:11;;;;;;;0.90;0.90;;;24.20;1.00;;;;;;2612285;54;20154;-63
2024/03/24 01:41:37;;;;;;;0.80;0.80;;;24.20;1.00;;;;;;2612596;54;20546;-64
2024/03/24 01:44:03;;;;;;;0.70;0.70;;;24.10;1.00;;;;;;2612292;47;20165;-63
2024/03/24 01:46:29;;;;;;;0.80;0.80;;;24.10;1.00;;;;;;2610988;39;20608;-63
2024/03/24 01:48:55;;;;;;;0.90;0.90;;;24.10;1.00;;;;;;2612177;54;20155;-63
2024/03/24 01:51:22;;;;;;;0.80;0.80;;;24.10;1.00;;;;;;2611385;39;20850;-63
2024/03/24 01:53:49;;;;;;;0.70;0.70;;;24.10;1.00;;;;;;2610004;54;20265;-63
2024/03/24 01:56:16;;;;;;;0.90;0.90;;;24.00;1.00;;;;;;2610960;39;20909;-63
2024/03/24 01:58:42;;;;;;;0.80;0.80;;;24.00;1.00;;;;;;2612735;54;20403;-63
2024/03/24 02:01:08;;;;;;;0.80;0.80;;;24.00;1.00;;;;;;2610670;54;20446;-63
2024/03/24 02:03:37;;;;;;;0.90;0.90;;;24.00;1.00;;;;;;2611613;54;20402;-63
2024/03/24 02:06:04;;;;;;;0.80;0.80;;;24.00;1.00;;;;;;2612640;39;20807;-64
2024/03/24 02:08:30;;;;;;;0.70;0.70;;;24.00;1.00;;;;;;2611749;54;20415;-63
2024/03/24 02:10:57;;;;;;;0.90;0.90;;;24.00;1.00;;;;;;2612201;54;20419;-63
2024/03/24 02:13:24;;;;;;;0.70;0.70;;;24.00;1.00;;;;;;2612475;39;20773;-63
2024/03/24 02:15:50;;;;;;;0.90;0.90;;;24.00;1.00;;;;;;2611502;54;20395;-62
2024/03/24 02:18:16;;;;;;;0.87;0.87;;;24.00;1.00;;;;;;2612628;54;20416;-63
2024/03/24 02:20:42;;;;;;;0.80;0.80;;;24.00;1.00;;;;;;2610850;47;21420;-63
2024/03/24 02:23:08;;;;;;;0.90;0.90;;;23.90;1.00;;;;;;2612024;54;20169;-63
2024/03/24 02:25:34;;;;;;;0.80;0.80;;;23.90;1.00;;;;;;2612487;47;20175;-63
2024/03/24 02:27:59;;;;;;;0.80;0.80;;;23.90;1.00;;;;;;2611177;54;20431;-63
2024/03/24 02:30:26;;;;;;;0.80;0.80;;;23.90;1.00;;;;;;2611114;54;20630;-63
2024/03/24 02:32:52;;;;;;;0.90;0.90;;;23.90;1.00;;;;;;2612098;54;20171;-63
2024/03/24 02:35:17;;;;;;;0.80;0.80;;;23.80;1.00;;;;;;2612470;54;20399;-63
2024/03/24 02:37:43;;;;;;;0.90;0.90;;;23.80;1.00;;;;;;2611670;54;20679;-63
2024/03/24 02:40:09;;;;;;;0.80;0.80;;;23.80;1.00;;;;;;2613237;39;20558;-63
2024/03/24 02:42:36;;;;;;;0.80;0.80;;;23.80;1.00;;;;;;2611441;54;20158;-63
2024/03/24 02:45:02;;;;;;;0.90;0.90;;;23.80;1.00;;;;;;2610757;39;20809;-68
2024/03/24 02:47:28;;;;;;;0.90;0.90;;;23.80;1.00;;;;;;2612092;54;20428;-68
2024/03/24 02:49:53;;;;;;;0.80;0.80;;;23.80;1.00;;;;;;2611851;54;20403;-68
2024/03/24 02:52:19;;;;;;;0.70;0.70;;;23.80;1.00;;;;;;2611659;54;20243;-68
2024/03/24 02:54:45;;;;;;;0.70;0.70;;;23.80;1.00;;;;;;2612670;39;20466;-69
2024/03/24 02:57:11;;;;;;;0.70;0.70;;;23.80;1.00;;;;;;2612527;54;20169;-69
2024/03/24 02:59:37;;;;;;;0.80;0.80;;;23.80;1.00;;;;;;2610574;54;20147;-69
2024/03/24 03:02:03;;;;;;;0.90;0.90;;;23.80;1.00;;;;;;2611762;54;20434;-68
2024/03/24 03:04:29;;;;;;;0.73;0.73;;;23.80;1.00;;;;;;2611636;54;20158;-68
2024/03/24 03:06:55;;;;;;;0.80;0.80;;;23.70;1.00;;;;;;2611772;39;20816;-68
2024/03/24 03:09:21;;;;;;;0.80;0.80;;;23.70;1.00;;;;;;2612490;54;20527;-68
2024/03/24 03:11:46;;;;;;;0.80;0.80;;;23.70;1.00;;;;;;2611946;54;20165;-68
2024/03/24 03:14:13;;;;;;;0.80;0.80;;;23.70;1.00;;;;;;2611741;39;20585;-69
2024/03/24 03:16:40;;;;;;;0.70;0.70;;;23.60;1.00;;;;;;2612671;47;20173;-69
2024/03/24 03:19:06;;;;;;;0.80;0.80;;;23.60;1.00;;;;;;2611497;54;20415;-68
2024/03/24 03:21:32;;;;;;;0.80;0.80;;;23.60;1.00;;;;;;2611492;54;20442;-68
2024/03/24 03:23:58;;;;;;;0.87;0.87;;;23.60;1.00;;;;;;2611981;54;20961;-68
2024/03/24 03:26:24;;;;;;;0.87;0.87;;;23.60;1.00;;;;;;2612915;39;20808;-64
2024/03/24 03:28:50;;;;;;;0.73;0.73;;;23.60;1.00;;;;;;2611598;54;20163;-64
2024/03/24 03:31:16;;;;;;;0.80;0.80;;;23.60;1.00;;;;;;2612553;54;20262;-62
2024/03/24 03:33:42;;;;;;;0.80;0.80;;;23.50;1.00;;;;;;2613155;39;20805;-64
2024/03/24 03:36:08;;;;;;;0.80;0.80;;;23.50;1.00;;;;;;2613034;54;20707;-77
2024/03/24 03:38:34;;;;;;;0.70;0.70;;;23.50;1.00;;;;;;2614161;54;20395;-77
2024/03/24 03:41:00;;;;;;;0.90;0.90;;;23.50;1.00;;;;;;2612500;47;20198;-77
2024/03/24 03:43:25;;;;;;;1.93;1.83;;;23.50;1.00;;;;;;2612923;54;20407;-78
2024/03/24 03:45:52;;;;;;;0.90;0.90;;;23.50;1.00;;;;;;2612493;39;20911;-77
2024/03/24 03:48:18;;;;;;;0.80;0.80;;;23.50;1.00;;;;;;2612195;54;21820;-77
2024/03/24 03:50:44;;;;;;;0.90;0.90;;;23.50;1.00;;;;;;2611721;51;20443;-79
2024/03/24 03:53:21;;;;;;;0.70;0.70;;;23.50;1.00;;;;;;2612156;54;20221;-77
2024/03/24 03:55:50;;;;;;;0.80;0.80;;;23.40;1.00;;;;;;2613206;54;20426;-66
2024/03/24 03:58:20;;;;;;;0.77;0.77;;;23.40;1.00;;;;;;2611720;54;20415;-66
2024/03/24 04:00:47;;;;;;;0.80;0.80;;;23.50;1.00;;;;;;2610450;54;20423;-65
2024/03/24 04:03:13;;;;;;;0.70;0.70;;;23.40;1.00;;;;;;2610196;54;21023;-66
2024/03/24 04:05:40;;;;;;;0.63;0.63;;;23.40;1.00;;;;;;2610107;47;20434;-66
2024/03/24 04:08:07;;;;;;;0.70;0.70;;;23.40;1.00;;;;;;2612153;39;20632;-66
2024/03/24 04:10:36;;;;;;;0.80;0.80;;;23.40;1.00;;;;;;2612205;54;20511;-66
2024/03/24 04:13:04;;;;;;;0.80;0.80;;;23.40;1.00;;;;;;2611724;54;20431;-67
2024/03/24 04:15:30;;;;;;;0.80;0.80;;;23.40;1.00;;;;;;2610885;54;20442;-66
2024/03/24 04:17:55;;;;;;;0.80;0.80;;;23.40;1.00;;;;;;2611974;54;21032;-66
2024/03/24 04:20:21;;;;;;;0.70;0.70;;;23.40;1.00;;;;;;2610665;54;20499;-66
2024/03/24 04:22:48;;;;;;;0.90;0.90;;;23.40;1.00;;;;;;2612255;54;20225;-66
2024/03/24 04:25:14;;;;;;;0.80;0.80;;;23.40;1.00;;;;;;2611996;54;20426;-66
2024/03/24 04:27:40;;;;;;;0.70;0.70;;;23.40;1.00;;;;;;2612112;54;20407;-66
2024/03/24 04:30:09;;;;;;;0.90;0.90;;;23.40;1.00;;;;;;2611707;54;20419;-66
2024/03/24 04:32:35;;;;;;;0.83;0.83;;;23.30;1.00;;;;;;2612270;54;20174;-65
2024/03/24 04:35:02;;;;;;;1.00;1.00;;;23.30;1.00;;;;;;2610148;48;20507;-63
2024/03/24 04:37:28;;;;;;;0.90;0.90;;;23.30;1.00;;;;;;2610975;54;20396;-65
2024/03/24 04:39:54;;;;;;;0.90;0.90;;;23.30;1.00;;;;;;2609915;54;20434;-63
2024/03/24 04:42:20;;;;;;;0.90;0.90;;;23.30;1.00;;;;;;2610803;47;20174;-63
2024/03/24 04:44:45;;;;;;;0.90;0.90;;;23.20;1.00;;;;;;2611045;54;20278;-66
2024/03/24 04:47:11;;;;;;;0.80;0.80;;;23.30;1.00;;;;;;2611468;54;20434;-67
2024/03/24 04:49:37;;;;;;;0.80;0.80;;;23.20;1.00;;;;;;2611452;54;20198;-67
2024/03/24 04:52:03;;;;;;;0.80;0.80;;;23.20;1.00;;;;;;2610873;54;20175;-66
2024/03/24 04:54:28;;;;;;;0.90;0.90;;;23.20;1.00;;;;;;2606900;54;20186;-67
2024/03/24 04:56:54;;;;;;;0.90;0.90;;;23.20;1.00;;;;;;2611111;54;20470;-67
2024/03/24 04:59:20;;;;;;;0.90;0.90;;;23.20;1.00;;;;;;2609776;54;20285;-67
2024/03/24 05:01:46;;;;;;;0.90;0.90;;;23.20;1.00;;;;;;2611039;54;20185;-67
2024/03/24 05:04:11;;;;;;;0.70;0.70;;;23.20;1.00;;;;;;2611068;54;20238;-67
2024/03/24 05:06:37;;;;;;;0.80;0.80;;;23.10;1.00;;;;;;2609001;54;20173;-67
2024/03/24 05:09:04;;;;;;;0.70;0.70;;;23.20;1.00;;;;;;2610148;54;20143;-67
2024/03/24 05:11:31;;;;;;;0.80;0.80;;;23.20;1.00;;;;;;2610052;54;20170;-68
2024/03/24 05:13:57;;;;;;;0.80;0.80;;;23.20;1.00;;;;;;2610659;54;20961;-67
2024/03/24 05:16:24;;;;;;;0.80;0.80;;;23.20;1.00;;;;;;2611426;54;20430;-67
2024/03/24 05:18:51;;;;;;;0.90;0.90;;;23.20;1.00;;;;;;2610196;47;20184;-68
2024/03/24 05:21:17;;;;;;;0.80;0.80;;;23.20;1.00;;;;;;2611283;39;21125;-66
2024/03/24 05:23:42;;;;;;;0.80;0.80;;;23.20;1.00;;;;;;2611114;47;20511;-67
2024/03/24 05:26:09;;;;;;;0.90;0.90;;;23.20;1.00;;;;;;2611605;54;20411;-67
2024/03/24 05:28:35;;;;;;;1.00;1.00;;;23.20;1.00;;;;;;2610877;54;20159;-67
2024/03/24 05:31:01;;;;;;;0.90;0.90;;;23.20;1.00;;;;;;2610633;54;21090;-67
2024/03/24 05:33:27;;;;;;;0.80;0.80;;;23.30;1.00;;;;;;2611131;54;20407;-67
2024/03/24 05:36:03;;;;;;;0.80;0.80;;;23.20;1.00;;;;;;2610855;54;20499;-68
2024/03/24 05:38:32;;;;;;;0.80;0.80;;;23.20;1.00;;;;;;2610704;54;20691;-68
2024/03/24 05:41:06;;;;;;;0.80;0.80;;;23.10;1.00;;;;;;2610473;54;20519;-67
2024/03/24 05:43:33;;;;;;;0.80;0.80;;;23.10;1.00;;;;;;2610998;54;20395;-68
2024/03/24 05:45:59;;;;;;;0.90;0.90;;;23.10;1.00;;;;;;2610711;54;20420;-79
2024/03/24 05:48:25;;;;;;;0.83;0.83;;;23.10;1.00;;;;;;2612172;47;20426;-80
2024/03/24 05:50:58;;;;;;;0.70;0.70;;;23.10;1.00;;;;;;2611652;47;20419;-79
2024/03/24 05:53:24;;;;;;;0.90;0.90;;;23.10;1.00;;;;;;2610640;47;20206;-79
2024/03/24 05:55:50;;;;;;;0.73;0.73;;;23.10;1.00;;;;;;2611118;54;20406;-65
2024/03/24 05:58:20;;;;;;;0.90;0.90;;;23.10;1.00;;;;;;2609928;54;20969;-64
2024/03/24 06:00:46;;;;;;;0.90;0.90;;;23.10;1.00;;;;;;2610323;54;21328;-65
2024/03/24 06:03:13;;;;;;;0.90;0.90;;;23.10;1.00;;;;;;2611937;39;21188;-65
2024/03/24 06:05:39;;;;;;;1.00;1.00;;;23.10;1.00;;;;;;2610474;54;20429;-65
2024/03/24 06:08:08;;;;;;;0.80;0.80;;;23.10;1.00;;;;;;2611844;47;20431;-65
2024/03/24 06:10:37;;;;;;;0.90;0.90;;;23.10;1.00;;;;;;2610532;54;20527;-65
2024/03/24 06:13:04;;;;;;;0.80;0.80;;;23.10;1.00;;;;;;2610905;54;20424;-65
2024/03/24 06:15:30;;;;;;;0.90;0.90;;;23.10;1.00;;;;;;2610689;54;20518;-67
2024/03/24 06:17:56;;;;;;;0.90;0.90;;;23.10;1.00;;;;;;2611416;54;20432;-67
2024/03/24 06:20:22;;;;;;;0.70;0.70;;;23.10;1.00;;;;;;2611222;54;20167;-68
2024/03/24 06:22:48;;;;;;;0.80;0.80;;;23.10;1.00;;;;;;2611303;54;20154;-67
2024/03/24 06:25:14;;;;;;;0.80;0.80;;;23.10;1.00;;;;;;2610760;54;20426;-67
2024/03/24 06:27:39;;;;;;;0.80;0.80;;;23.10;1.00;;;;;;2610868;54;20170;-68
2024/03/24 06:30:06;;;;;;;0.70;0.70;;;23.10;1.00;;;;;;2611108;47;20208;-67
2024/03/24 06:32:32;;;;;;;0.70;0.70;;;23.10;1.00;;;;;;2610809;54;20159;-67
2024/03/24 06:34:58;;;;;;;0.70;0.70;;;23.10;1.00;;;;;;2611848;54;20427;-68
2024/03/24 06:37:23;;;;;;;0.80;0.80;;;23.10;1.00;;;;;;2611224;47;20171;-68
2024/03/24 06:39:51;;;;;;;0.80;0.80;;;23.10;1.00;;;;;;2609595;51;20824;-66
2024/03/24 06:42:18;;;;;;;0.80;0.80;;;23.00;1.00;;;;;;2610355;54;20151;-67
2024/03/24 06:44:46;;;;;;;0.80;0.80;;;23.00;1.00;;;;;;2611779;39;20839;-68
2024/03/24 06:47:12;;;;;;;0.90;0.90;;;23.00;1.00;;;;;;2611351;54;20412;-68
2024/03/24 06:49:37;;;;;;;0.80;0.80;;;23.00;1.00;;;;;;2611081;54;20387;-68
2024/03/24 06:52:03;;;;;;;0.80;0.80;;;23.00;1.00;;;;;;2611716;54;20155;-68
2024/03/24 06:54:29;;;;;;;0.90;0.90;;;23.00;1.00;;;;;;2611018;54;20201;-80
2024/03/24 06:56:56;;;;;;;0.80;0.80;;;23.00;1.00;;;;;;2612973;39;21230;-80
2024/03/24 06:59:22;;;;;;;0.70;0.70;;;23.00;1.00;;;;;;2610289;54;20218;-80
2024/03/24 07:01:48;;;;;;;0.80;0.80;;;23.00;1.00;;;;;;2610458;54;20404;-82
2024/03/24 07:04:13;;;;;;;0.80;0.80;;;23.00;1.00;;;;;;2611506;47;20254;-68
2024/03/24 07:06:39;;;;;;;0.70;0.70;;;23.00;1.00;;;;;;2609657;54;20170;-68
2024/03/24 07:09:06;;;;;;;0.70;0.70;;;23.00;1.00;;;;;;2609974;54;20155;-68
2024/03/24 07:11:32;;;;;;;0.70;0.70;;;23.00;1.00;;;;;;2610886;39;20660;-68
2024/03/24 07:14:00;;;;;;;0.80;0.80;;;23.00;1.00;;;;;;2610683;54;20407;-68
2024/03/24 07:16:25;;;;;;;0.73;0.73;;;23.00;1.00;;;;;;2610555;54;20162;-68
2024/03/24 07:18:51;;;;;;;0.80;0.80;;;23.00;1.00;;;;;;2609992;54;20419;-67
2024/03/24 07:21:17;;;;;;;0.80;0.80;;;23.00;1.00;;;;;;2610187;54;20170;-68
2024/03/24 07:23:43;;;;;;;0.80;0.80;;;23.00;1.00;;;;;;2609393;47;20177;-68
2024/03/24 07:26:08;;;;;;;0.67;0.67;;;22.90;1.00;;;;;;2611236;54;20171;-73
2024/03/24 07:28:34;;;;;;;1.50;1.40;;;23.00;1.00;;;;;;2610820;54;20178;-74
2024/03/24 07:31:01;;;;;;;1.30;1.30;;;23.30;1.00;;;;;;2611470;54;20147;-71
2024/03/24 07:33:27;;;;;;;1.30;1.30;;;23.60;1.00;;;;;;2611387;54;20174;-71
2024/03/24 07:35:52;;;;;;;1.20;1.20;;;23.90;1.00;;;;;;2611253;54;20419;-73
2024/03/24 07:38:18;;;;;;;1.10;1.10;;;24.10;1.00;;;;;;2611576;54;20154;-71
2024/03/24 07:40:44;;;;;;;1.20;1.20;;;24.30;1.00;;;;;;2611438;54;20238;-68
2024/03/24 07:43:11;;;;;;;1.10;1.10;;;24.40;1.00;;;;;;2609983;54;20174;-67
2024/03/24 07:45:38;;;;;;;1.20;1.20;;;24.50;1.00;;;;;;2610917;54;20269;-67
2024/03/24 07:48:04;;;;;;;1.00;1.00;;;24.50;1.00;;;;;;2610530;54;20415;-67
2024/03/24 07:50:30;;;;;;;1.20;1.20;;;24.50;1.00;;;;;;2611149;47;20430;-68
2024/03/24 07:52:56;;;;;;;1.10;1.10;;;24.60;1.00;;;;;;2610575;54;20451;-67
2024/03/24 07:55:21;;;;;;;1.17;1.17;;;24.60;1.00;;;;;;2610614;54;20158;-71
2024/03/24 07:57:47;;;;;;;1.10;1.10;;;24.60;1.00;;;;;;2609890;47;20170;-71
2024/03/24 08:00:14;;;;;;;1.20;1.20;;;24.40;1.00;;;;;;2609926;54;20155;-69
2024/03/24 08:02:39;;;;;;;1.10;1.10;;;24.40;1.00;;;;;;2610545;54;20683;-71
2024/03/24 08:05:05;;;;;;;1.10;1.10;;;24.50;1.00;;;;;;2610132;54;20407;-68
2024/03/24 08:07:31;;;;;;;1.10;1.10;;;24.50;1.00;;;;;;2610315;54;20687;-68
2024/03/24 08:09:58;;;;;;;1.00;1.00;;;24.50;1.00;;;;;;2610622;54;20412;-68
2024/03/24 08:12:24;;;;;;;1.57;1.47;;;24.50;1.00;;;;;;2609949;54;20161;-71
2024/03/24 08:14:49;;;;;;;1.80;1.70;;;24.60;1.00;;;;;;2611008;54;20495;-74
2024/03/24 08:17:15;;;;;;;1.70;1.60;;;24.70;1.00;;;;;;2611773;47;20197;-74
2024/03/24 08:19:41;;;;;;;1.70;1.60;;;24.70;1.00;;;;;;2611171;54;20159;-77
2024/03/24 08:22:07;;;;;;;1.80;1.70;;;24.80;1.00;;;;;;2612152;54;20166;-72
2024/03/24 08:24:32;;;;;;;0.93;0.93;;;24.80;1.00;;;;;;2611507;54;20177;-70
2024/03/24 08:26:58;;;;;;;2.40;2.30;;;24.70;1.00;;;;;;2611095;54;20171;-69
2024/03/24 08:29:24;;;;;;;2.30;2.20;;;24.60;1.00;;;;;;2612238;54;20166;-68
2024/03/24 08:31:50;;;;;;;2.50;2.40;;;24.70;1.00;;;;;;2611683;47;20174;-68
2024/03/24 08:34:15;;;;;;;2.60;2.50;;;24.70;1.00;;;;;;2611739;54;20147;-77
2024/03/24 08:36:41;;;;;;;2.70;2.60;;;24.70;1.00;;;;;;2612451;54;20178;-83
2024/03/24 08:39:07;;;;;;;2.60;2.50;;;24.70;1.00;;;;;;2612727;54;20159;-79
2024/03/24 08:41:33;;;;;;;2.00;1.90;;;24.80;1.00;;;;;;2613233;54;20221;-77
2024/03/24 08:43:58;;;;;;;2.10;2.00;;;24.70;1.00;;;;;;2612450;54;20459;-83
2024/03/24 08:46:29;;;;;;;2.40;2.30;;;24.80;1.00;;;;;;2612329;54;20174;-73
2024/03/24 08:48:54;;;;;;;2.90;2.80;;;24.90;1.00;;;;;;2612038;54;20696;-77
2024/03/24 08:51:21;;;;;;;1.00;1.00;;;25.00;1.00;;;;;;2611811;54;20539;-79
2024/03/24 08:53:46;;;;;;;0.90;0.90;;;25.10;1.00;;;;;;2612971;39;20586;-78
2024/03/24 08:56:12;;;;;;;1.00;1.00;;;24.90;1.00;;;;;;2612759;54;20403;-80
2024/03/24 08:58:38;;;;;;;2.30;2.20;;;24.60;1.00;;;;;;2611235;54;20166;-69
2024/03/24 09:01:03;;;;;;;2.30;2.20;;;24.40;1.00;;;;;;2611763;54;20279;-71
2024/03/24 09:03:29;;;;;;;2.00;1.90;;;24.50;1.00;;;;;;2610604;47;20254;-73
2024/03/24 09:05:55;;;;;;;1.10;1.10;;;24.50;1.00;;;;;;2609267;54;20419;-77
2024/03/24 09:08:21;;;;;;;1.10;1.10;;;24.40;1.00;;;;;;2612640;54;20154;-77
2024/03/24 09:10:46;;;;;;;1.00;1.00;;;24.20;1.00;;;;;;2612815;54;20150;-77
2024/03/24 09:13:12;;;;;;;1.00;1.00;;;24.00;1.00;;;;;;2612811;54;20154;-78
2024/03/24 09:15:38;;;;;;;1.13;1.13;;;23.90;1.00;;;;;;2612678;54;20147;-68
2024/03/24 09:18:04;;;;;;;0.90;0.90;;;23.90;1.00;;;;;;2612152;54;20246;-68
2024/03/24 09:20:29;;;;;;;1.20;1.20;;;23.80;1.00;;;;;;2611700;54;20270;-69
2024/03/24 09:22:55;;;;;;;1.17;1.17;;;23.80;1.00;;;;;;2611189;54;20442;-72
2024/03/24 09:25:21;;;;;;;1.30;1.30;;;23.80;1.00;;;;;;2612246;54;20147;-69
2024/03/24 09:27:48;;;;;;;1.40;1.40;;;23.80;1.00;;;;;;2611244;47;20254;-69
2024/03/24 09:30:14;;;;;;;1.10;1.10;;;23.80;1.00;;;;;;2611879;54;20154;-68
2024/03/24 09:32:42;;;;;;;1.50;1.40;;;23.80;1.00;;;;;;2610991;51;20430;-69
2024/03/24 09:35:08;;;;;;;1.10;1.10;;;23.70;1.00;;;;;;2611588;54;20467;-69
2024/03/24 09:37:34;;;;;;;1.20;1.20;;;23.70;1.00;;;;;;2610854;47;20439;-68
2024/03/24 09:40:00;;;;;;;1.10;1.10;;;23.60;1.00;;;;;;2611036;54;21012;-69
2024/03/24 09:42:28;;;;;;;1.20;1.20;;;23.50;1.00;;;;;;2612162;54;20173;-68
2024/03/24 09:44:55;;;;;;;1.33;1.30;;;23.50;1.00;;;;;;2611350;54;20158;-69
2024/03/24 09:47:22;;;;;;;1.20;1.20;;;23.50;1.00;;;;;;2610909;54;20415;-69
2024/03/24 09:49:50;;;;;;;1.30;1.30;;;23.40;1.00;;;;;;2611191;47;20439;-69
2024/03/24 09:52:20;;;;;;;1.33;1.33;;;23.40;1.00;;;;;;2611515;54;20443;-69
2024/03/24 09:54:47;;;;;;;1.30;1.30;;;23.40;1.00;;;;;;2611359;54;20442;-69
2024/03/24 09:57:13;;;;;;;1.30;1.30;;;23.40;1.00;;;;;;2610889;54;20466;-65
2024/03/24 09:59:41;;;;;;;2.10;2.00;;;23.60;1.00;;;;;;2610226;47;20431;-67
2024/03/24 10:02:09;;;;;;;2.30;2.20;;;23.90;1.00;;;;;;2611652;54;20419;-69
2024/03/24 10:04:35;;;;;;;2.20;2.10;;;24.20;1.00;;;;;;2611454;54;20403;-70
2024/03/24 10:07:01;;;;;;;2.10;2.00;;;24.40;1.00;;;;;;2611918;54;20419;-69
2024/03/24 10:09:27;;;;;;;2.13;2.03;;;24.60;1.00;;;;;;2611210;54;20442;-69
2024/03/24 10:11:52;;;;;;;1.10;1.10;;;24.70;1.00;;;;;;2611812;54;20279;-71
2024/03/24 10:14:24;;;;;;;1.90;1.80;;;24.60;1.00;;;;;;2610864;54;20147;-72
2024/03/24 10:16:51;;;;;;;1.70;1.60;;;23.90;1.00;;;;;;2610565;47;20170;-67
2024/03/24 10:19:17;;;;;;;4.90;4.70;;;23.90;1.00;;;;;;2610465;54;20392;-71
2024/03/24 10:21:43;;;;;;;1.88;1.77;;;24.20;1.00;;;;;;2610102;54;21042;-61
2024/03/24 10:24:09;;;;;;;0.60;0.57;;;24.50;1.00;;;;;;2609858;54;20442;-71
2024/03/24 10:26:38;;;;;;;0.50;0.30;;;24.50;1.00;;;;;;2610419;47;20170;-66
2024/03/24 10:29:05;;;;;;;0.50;0.30;;;23.80;1.00;;;;;;2611048;54;20426;-65
2024/03/24 10:31:34;;;;;;;0.50;0.30;;;24.00;1.00;;;;;;2611509;54;20482;-66
2024/03/24 10:34:02;;;;;;;0.50;0.30;;;24.10;1.00;;;;;;2610574;54;20427;-66
2024/03/24 10:36:31;;;;;;;0.50;0.30;;;24.30;1.00;;;;;;2611479;54;20439;-72
2024/03/24 10:38:57;;;;;;;0.50;0.20;;;24.30;1.00;;;;;;2611257;54;20395;-72
2024/03/24 10:41:26;;;;;;;0.50;0.20;;;24.10;1.00;;;;;;2609903;54;20635;-68
2024/03/24 10:43:53;;;;;;;0.50;0.20;;;24.10;1.00;;;;;;2611257;54;20170;-66
2024/03/24 10:46:20;;;;;;;0.60;0.30;;;24.30;1.00;;;;;;2610310;31;20941;-66
2024/03/24 10:48:49;;;;;;;0.60;0.40;;;24.50;1.00;;;;;;2610982;54;20419;-72
2024/03/24 10:51:20;;;;;;;0.50;0.30;;;24.60;1.00;;;;;;2610712;54;20423;-72
2024/03/24 10:53:48;;;;;;;0.70;0.70;;;24.70;1.00;;;;;;2610809;47;20462;-72
2024/03/24 10:56:16;;;;;;;0.50;0.30;;;24.80;1.00;;;;;;2611482;47;20423;-76
2024/03/24 10:58:43;;;;;;;0.50;0.30;;;24.90;1.00;;;;;;2610825;54;20395;-67
2024/03/24 11:01:10;;;;;;;0.50;0.30;;;24.80;1.00;;;;;;2611086;47;20439;-66
2024/03/24 11:03:37;;;;;;;0.57;0.30;;;24.70;1.00;;;;;;2610089;54;20403;-66
2024/03/24 11:06:03;;;;;;;0.50;0.20;;;24.60;1.00;;;;;;2611623;54;20419;-66
2024/03/24 11:08:29;;;;;;;0.50;0.20;;;24.70;1.00;;;;;;2611714;47;20431;-68
2024/03/24 11:10:56;;;;;;;0.50;0.20;;;24.40;1.00;;;;;;2611453;54;20959;-68
2024/03/24 11:13:27;;;;;;;0.50;0.30;;;24.10;1.00;;;;;;2611293;54;20523;-68
2024/03/24 11:15:53;;;;;;;0.50;0.20;;;23.80;1.00;;;;;;2612632;39;21876;-68
2024/03/24 11:18:24;;;;;;;0.50;0.20;;;23.70;1.00;;;;;;2611848;39;20811;-69
2024/03/24 11:20:54;;;;;;;0.50;0.30;;;23.60;1.00;;;;;;2610893;54;20408;-69
2024/03/24 11:23:21;;;;;;;0.50;0.20;;;23.50;1.00;;;;;;2611662;54;20423;-68
2024/03/24 11:25:50;;;;;;;0.50;0.20;;;23.40;1.00;;;;;;2610467;54;21332;-68
2024/03/24 11:28:39;;;;;;;0.50;0.20;;;23.40;1.00;;;;;;2611701;47;20415;-69
2024/03/24 11:31:21;;;;;;;0.50;0.20;;;23.30;1.00;;;;;;2610873;54;20531;-69
2024/03/24 11:33:59;;;;;;;0.50;0.30;;;23.30;1.00;;;;;;2611339;54;20431;-68
2024/03/24 11:36:25;;;;;;;0.50;0.30;;;23.20;1.00;;;;;;2611901;54;20503;-68
2024/03/24 11:38:53;;;;;;;0.50;0.30;;;23.20;1.00;;;;;;2610535;54;20411;-63
2024/03/24 11:41:20;;;;;;;0.50;0.20;;;23.30;1.00;;;;;;2610807;54;20424;-63
2024/03/24 11:43:59;;;;;;;0.50;0.20;;;23.60;1.00;;;;;;2611200;54;20399;-65
2024/03/24 11:46:29;;;;;;;0.50;0.20;;;23.90;1.00;;;;;;2611119;47;20443;-72
2024/03/24 11:49:00;;;;;;;0.50;0.30;;;24.10;1.00;;;;;;2611587;54;20404;-72
2024/03/24 11:51:29;;;;;;;0.50;0.30;;;24.30;1.00;;;;;;2611536;47;20495;-68
2024/03/24 11:53:56;;;;;;;5.90;5.70;;;24.40;1.00;;;;;;2611590;54;20454;-68
2024/03/24 11:56:22;;;;;;;5.90;5.70;;;24.40;1.00;;;;;;2612229;54;20399;-68
2024/03/24 11:58:52;;;;;;;5.90;5.70;;;24.40;1.00;;;;;;2612002;54;20510;-72
2024/03/24 12:01:19;;;;;;;5.87;5.67;;;24.50;1.00;;;;;;2611558;54;20426;-73
2024/03/24 12:03:46;;;;;;;6.07;5.87;;;24.60;1.00;;;;;;2612240;54;20419;-72
2024/03/24 12:06:13;;;;;;;6.10;5.90;;;24.70;1.00;;;;;;2611616;54;20535;-60
2024/03/24 12:08:42;;;;;;;5.57;5.37;;;24.70;1.00;;;;;;2611620;54;20526;-61
2024/03/24 12:11:08;;;;;;;5.60;5.40;;;24.80;1.00;;;;;;2611205;54;20968;-63
2024/03/24 12:13:38;;;;;;;6.40;6.20;;;24.80;1.00;;;;;;2611578;54;20407;-62
2024/03/24 12:16:04;;;;;;;5.83;5.63;;;24.90;1.00;;;;;;2612686;54;20419;-62
2024/03/24 12:18:30;;;;;;;5.83;5.63;;;25.10;1.00;;;;;;2613016;39;20926;-61
2024/03/24 12:20:59;;;;;;;4.63;4.50;;;25.20;1.00;;;;;;2611596;54;21257;-62
2024/03/24 12:23:26;;;;;;;4.90;4.70;;;25.40;1.00;;;;;;2611938;54;20422;-62
2024/03/24 12:25:55;;;;;;;4.63;4.53;;;25.40;1.00;;;;;;2612730;39;20839;-65
2024/03/24 12:28:21;;;;;;;5.37;5.17;;;25.50;1.00;;;;;;2610647;54;20422;-64
2024/03/24 12:30:51;;;;;;;4.67;4.57;;;25.50;1.00;;;;;;2610723;54;21060;-63
2024/03/24 12:33:21;;;;;;;4.90;4.70;;;25.60;1.00;;;;;;2610726;54;20499;-65
2024/03/24 12:35:49;;;;;;;4.77;4.67;;;25.60;1.00;;;;;;2611510;54;20419;-68
2024/03/24 12:38:15;;;;;;;5.70;5.50;;;25.60;1.00;;;;;;2612226;39;20815;-65
2024/03/24 12:40:51;;;;;;;4.00;3.90;;;25.50;1.00;;;;;;2612219;39;20778;-66
2024/03/24 12:43:17;;;;;;;4.80;4.60;;;25.30;1.00;;;;;;2611521;54;20438;-61
2024/03/24 12:45:50;;;;;;;5.27;5.07;;;25.10;1.00;;;;;;2611898;54;20470;-59
2024/03/24 12:48:19;;;;;;;5.20;5.00;;;25.10;1.00;;;;;;2612008;54;20438;-60
2024/03/24 12:50:46;;;;;;;2.90;2.80;;;25.10;1.00;;;;;;2611755;54;20422;-61
2024/03/24 12:53:21;;;;;;;5.03;4.83;;;25.10;1.00;;;;;;2611375;39;20745;-61
2024/03/24 12:55:48;;;;;;;5.10;4.90;;;25.00;1.00;;;;;;2612424;54;20430;-72